createdAt,value
2022-12-18T00:00:10.583Z,99790.40
2022-12-18T00:03:05.562Z,99785.52
2022-12-18T00:05:33.590Z,99787.06
2022-12-18T00:08:01.554Z,99791.42
2022-12-18T00:10:30.267Z,99786.81
2022-12-18T00:12:58.220Z,99790.05
2022-12-18T00:15:26.339Z,99795.63
2022-12-18T00:17:54.271Z,99800.30
2022-12-18T00:20:26.684Z,99802.60
2022-12-18T00:23:00.641Z,99810.91
2022-12-18T00:25:28.605Z,99806.31
2022-12-18T00:27:56.696Z,99805.64
2022-12-18T00:30:24.772Z,99809.29
2022-12-18T00:32:54.849Z,99809.52
2022-12-18T00:35:23.080Z,99810.07
2022-12-18T00:37:51.166Z,99816.28
2022-12-18T00:40:19.181Z,99817.64
2022-12-18T00:42:59.473Z,99820.85
2022-12-18T00:45:28.396Z,99822.70
2022-12-18T00:47:57.633Z,99829.02
2022-12-18T00:50:26.062Z,99832.61
2022-12-18T00:52:54.077Z,99833.48
2022-12-18T00:55:21.903Z,99836.42
2022-12-18T00:57:51.769Z,99838.34
2022-12-18T01:00:20.111Z,99842.48
2022-12-18T01:02:48.303Z,99849.56
2022-12-18T01:05:16.627Z,99851.80
2022-12-18T01:07:44.665Z,99858.91
2022-12-18T01:10:13.904Z,99859.96
2022-12-18T01:12:42.862Z,99865.83
2022-12-18T01:15:14.071Z,99867.92
2022-12-18T01:17:42.599Z,99866.41
2022-12-18T01:20:12.612Z,99862.20
2022-12-18T01:22:40.725Z,99867.25
2022-12-18T01:25:09.791Z,99860.25
2022-12-18T01:27:37.726Z,99864.95
2022-12-18T01:30:06.271Z,99865.44
2022-12-18T01:32:34.222Z,99865.48
2022-12-18T01:35:04.420Z,99865.08
2022-12-18T01:37:32.406Z,99865.66
2022-12-18T01:40:00.422Z,99869.49
2022-12-18T01:42:28.546Z,99867.83
2022-12-18T01:44:59.513Z,99874.26
2022-12-18T01:47:41.824Z,99873.27
2022-12-18T01:50:22.448Z,99876.20
2022-12-18T01:52:55.100Z,99880.09
2022-12-18T01:55:24.762Z,99882.27
2022-12-18T01:57:56.202Z,99883.27
2022-12-18T02:00:24.990Z,99887.75
2022-12-18T02:02:53.345Z,99891.23
2022-12-18T02:05:42.325Z,99895.20
2022-12-18T02:08:36.548Z,99901.38
2022-12-18T02:11:12.131Z,99902.95
2022-12-18T02:13:46.038Z,99910.92
2022-12-18T02:16:28.004Z,99920.95
2022-12-18T02:19:01.438Z,99925.23
2022-12-18T02:21:29.514Z,99922.75
2022-12-18T02:24:15.332Z,99925.60
2022-12-18T02:26:58.233Z,99930.52
2022-12-18T02:29:57.624Z,99931.14
2022-12-18T02:32:29.752Z,99934.14
2022-12-18T02:35:00.580Z,99933.91
2022-12-18T02:37:32.022Z,99931.29
2022-12-18T02:40:05.521Z,99935.96
2022-12-18T02:42:33.906Z,99939.42
2022-12-18T02:45:02.618Z,99944.23
2022-12-18T02:47:35.091Z,99949.61
2022-12-18T02:50:35.793Z,99951.22
2022-12-18T02:53:20.572Z,99953.60
2022-12-18T02:56:10.737Z,99958.41
2022-12-18T02:59:01.921Z,99961.52
2022-12-18T03:01:53.594Z,99960.44
2022-12-18T03:04:40.250Z,99971.92
2022-12-18T03:07:16.494Z,99976.00
2022-12-18T03:09:47.092Z,99980.13
2022-12-18T03:12:28.803Z,99984.95
2022-12-18T03:15:20.359Z,99989.75
2022-12-18T03:18:08.423Z,99989.58
2022-12-18T03:20:40.008Z,99993.88
2022-12-18T03:23:12.768Z,99990.60
2022-12-18T03:25:45.259Z,99987.85
2022-12-18T03:28:16.975Z,99983.02
2022-12-18T03:30:48.844Z,99984.30
2022-12-18T03:33:26.938Z,99989.00
2022-12-18T03:35:56.596Z,99988.28
2022-12-18T03:38:25.867Z,99990.63
2022-12-18T03:41:32.848Z,99992.55
2022-12-18T03:44:36.941Z,99996.70
2022-12-18T03:47:05.038Z,99997.95
2022-12-18T03:49:58.245Z,99997.47
2022-12-18T03:53:01.646Z,100005.67
2022-12-18T03:55:35.695Z,100005.62
2022-12-18T03:58:08.574Z,100006.55
2022-12-18T04:01:01.605Z,100014.23
2022-12-18T04:03:33.572Z,100019.91
2022-12-18T04:06:03.231Z,100014.88
2022-12-18T04:08:31.821Z,100021.50
2022-12-18T04:11:06.111Z,100024.44
2022-12-18T04:13:36.698Z,100024.27
2022-12-18T04:16:07.759Z,100028.89
2022-12-18T04:18:37.713Z,100024.33
2022-12-18T04:21:05.970Z,100031.79
2022-12-18T04:23:34.354Z,100029.54
2022-12-18T04:26:03.140Z,100033.85
2022-12-18T04:28:50.076Z,100039.52
2022-12-18T04:31:18.242Z,100041.96
2022-12-18T04:33:46.459Z,100045.26
2022-12-18T04:36:15.077Z,100047.25
2022-12-18T04:38:43.397Z,100049.02
2022-12-18T04:41:13.572Z,100051.55
2022-12-18T04:43:42.253Z,100054.98
2022-12-18T04:46:10.891Z,100058.60
2022-12-18T04:48:40.005Z,100059.46
2022-12-18T04:51:08.472Z,100063.42
2022-12-18T04:53:36.665Z,100071.54
2022-12-18T04:56:06.168Z,100071.90
2022-12-18T04:58:35.019Z,100077.58
2022-12-18T05:01:03.429Z,100079.83
2022-12-18T05:03:31.868Z,100082.46
2022-12-18T05:06:00.482Z,100087.76
2022-12-18T05:08:28.450Z,100087.88
2022-12-18T05:11:05.200Z,100090.29
2022-12-18T05:13:33.996Z,100092.88
2022-12-18T05:16:02.003Z,100097.94
2022-12-18T05:18:30.244Z,100101.91
2022-12-18T05:20:58.721Z,100106.29
2022-12-18T05:23:27.305Z,100098.32
2022-12-18T05:26:01.679Z,100105.18
2022-12-18T05:28:32.022Z,100107.46
2022-12-18T05:31:01.994Z,100103.55
2022-12-18T05:33:31.640Z,100105.70
2022-12-18T05:36:04.435Z,100112.98
2022-12-18T05:38:35.152Z,100114.46
2022-12-18T05:41:04.052Z,100115.95
2022-12-18T05:43:32.492Z,100120.39
2022-12-18T05:46:08.555Z,100119.64
2022-12-18T05:48:36.554Z,100125.33
2022-12-18T05:51:16.101Z,100127.27
2022-12-18T05:53:44.840Z,100132.30
2022-12-18T05:56:16.639Z,100129.26
2022-12-18T05:58:45.328Z,100130.98
2022-12-18T06:01:18.652Z,100132.55
2022-12-18T06:03:47.306Z,100133.76
2022-12-18T06:06:16.975Z,100127.31
2022-12-18T06:08:46.780Z,100134.81
2022-12-18T06:11:19.216Z,100137.77
2022-12-18T06:13:47.678Z,100142.61
2022-12-18T06:16:15.749Z,100141.04
2022-12-18T06:18:43.816Z,100145.70
2022-12-18T06:21:11.983Z,100143.64
2022-12-18T06:23:40.626Z,100142.10
2022-12-18T06:26:10.681Z,100147.61
2022-12-18T06:28:38.788Z,100144.35
2022-12-18T06:31:08.370Z,100149.89
2022-12-18T06:33:37.111Z,100154.08
2022-12-18T06:36:14.246Z,100154.06
2022-12-18T06:38:44.758Z,100162.25
2022-12-18T06:41:15.772Z,100167.20
2022-12-18T06:43:46.227Z,100175.42
2022-12-18T06:46:14.539Z,100178.23
2022-12-18T06:48:42.642Z,100180.70
2022-12-18T06:51:11.738Z,100189.71
2022-12-18T06:53:40.458Z,100189.83
2022-12-18T06:56:10.541Z,100196.56
2022-12-18T06:58:39.591Z,100201.08
2022-12-18T07:01:11.394Z,100202.89
2022-12-18T07:03:42.160Z,100203.42
2022-12-18T07:06:16.174Z,100207.38
2022-12-18T07:08:44.764Z,100211.54
2022-12-18T07:11:13.190Z,100211.05
2022-12-18T07:13:41.529Z,100215.95
2022-12-18T07:16:22.579Z,100218.96
2022-12-18T07:18:52.641Z,100227.30
2022-12-18T07:24:04.469Z,100231.45
2022-12-18T07:26:32.526Z,100231.39
2022-12-18T07:29:00.835Z,100237.87
2022-12-18T07:31:34.427Z,100238.83
2022-12-18T07:34:03.650Z,100234.67
2022-12-18T07:36:31.805Z,100247.43
2022-12-18T07:39:00.030Z,100248.46
2022-12-18T07:41:28.457Z,100249.59
2022-12-18T07:43:56.946Z,100252.13
2022-12-18T07:46:25.286Z,100254.52
2022-12-18T07:48:53.187Z,100249.41
2022-12-18T07:51:21.176Z,100248.13
2022-12-18T07:53:50.324Z,100252.44
2022-12-18T07:56:30.437Z,100251.59
2022-12-18T07:59:00.700Z,100251.32
2022-12-18T08:01:29.303Z,100253.46
2022-12-18T08:03:58.441Z,100254.70
2022-12-18T08:06:26.836Z,100253.81
2022-12-18T08:08:56.657Z,100254.67
2022-12-18T08:11:27.292Z,100251.15
2022-12-18T08:13:56.268Z,100251.90
2022-12-18T08:16:24.620Z,100254.64
2022-12-18T08:18:53.455Z,100257.29
2022-12-18T08:21:27.363Z,100259.11
2022-12-18T08:23:58.818Z,100257.02
2022-12-18T08:26:28.358Z,100262.14
2022-12-18T08:28:58.028Z,100263.23
2022-12-18T08:31:28.916Z,100269.59
2022-12-18T08:33:56.969Z,100270.21
2022-12-18T08:36:25.584Z,100272.64
2022-12-18T08:38:55.054Z,100275.11
2022-12-18T08:41:23.590Z,100278.52
2022-12-18T08:44:10.522Z,100285.80
2022-12-18T08:46:40.328Z,100290.30
2022-12-18T08:49:10.314Z,100297.78
2022-12-18T08:51:38.738Z,100298.68
2022-12-18T08:54:07.212Z,100299.62
2022-12-18T08:56:35.399Z,100304.44
2022-12-18T08:59:03.974Z,100307.14
2022-12-18T09:01:32.205Z,100305.15
2022-12-18T09:04:01.007Z,100307.58
2022-12-18T09:06:28.994Z,100311.16
2022-12-18T09:08:58.523Z,100313.84
2022-12-18T09:11:27.454Z,100318.71
2022-12-18T09:13:55.714Z,100326.01
2022-12-18T09:16:28.819Z,100323.97
2022-12-18T09:19:00.920Z,100328.19
2022-12-18T09:21:32.898Z,100330.86
2022-12-18T09:24:03.393Z,100327.57
2022-12-18T09:26:31.493Z,100327.77
2022-12-18T09:29:12.366Z,100323.16
2022-12-18T09:31:40.632Z,100319.94
2022-12-18T09:34:08.554Z,100324.63
2022-12-18T09:36:36.407Z,100323.90
2022-12-18T09:39:08.541Z,100324.02
2022-12-18T09:41:41.631Z,100327.52
2022-12-18T09:44:18.726Z,100331.98
2022-12-18T09:46:59.405Z,100336.87
2022-12-18T09:49:31.631Z,100335.87
2022-12-18T09:52:06.343Z,100335.05
2022-12-18T09:54:44.689Z,100332.89
2022-12-18T09:57:16.770Z,100332.14
2022-12-18T09:59:51.151Z,100333.67
2022-12-18T10:02:24.056Z,100333.63
2022-12-18T10:05:08.955Z,100335.38
2022-12-18T10:07:45.107Z,100331.89
2022-12-18T10:10:28.812Z,100330.57
2022-12-18T10:13:08.535Z,100319.75
2022-12-18T10:15:58.481Z,100327.59
2022-12-18T10:18:26.621Z,100329.75
2022-12-18T10:21:01.344Z,100330.33
2022-12-18T10:23:48.191Z,100327.46
2022-12-18T10:26:16.814Z,100321.38
2022-12-18T10:28:46.393Z,100314.73
2022-12-18T10:31:32.692Z,100309.13
2022-12-18T10:34:00.721Z,100306.39
2022-12-18T10:36:28.844Z,100309.35
2022-12-18T10:39:16.160Z,100304.86
2022-12-18T10:41:44.072Z,100301.58
2022-12-18T10:44:21.489Z,100298.75
2022-12-18T10:46:54.335Z,100299.70
2022-12-18T10:49:31.465Z,100299.48
2022-12-18T10:52:29.023Z,100294.21
2022-12-18T10:55:02.619Z,100297.48
2022-12-18T10:57:36.864Z,100298.54
2022-12-18T11:00:29.406Z,100291.73
2022-12-18T11:02:58.029Z,100286.46
2022-12-18T11:05:35.024Z,100283.38
2022-12-18T11:08:03.402Z,100281.66
2022-12-18T11:10:33.027Z,100277.17
2022-12-18T11:13:21.764Z,100276.39
2022-12-18T11:15:50.657Z,100276.42
2022-12-18T11:18:26.152Z,100274.40
2022-12-18T11:20:59.134Z,100272.80
2022-12-18T11:23:27.659Z,100263.17
2022-12-18T11:25:59.615Z,100266.53
2022-12-18T11:28:35.105Z,100271.21
2022-12-18T11:31:18.211Z,100278.02
2022-12-18T11:34:19.831Z,100280.66
2022-12-18T11:36:44.056Z,100277.85
2022-12-18T11:39:21.159Z,100285.86
2022-12-18T11:42:12.905Z,100285.41
2022-12-18T11:44:53.805Z,100280.55
2022-12-18T11:47:33.979Z,100289.70
2022-12-18T11:50:04.087Z,100291.14
2022-12-18T11:52:40.250Z,100291.16
2022-12-18T11:55:16.246Z,100293.29
2022-12-18T11:57:56.491Z,100293.70
2022-12-18T12:00:25.500Z,100296.89
2022-12-18T12:03:08.961Z,100296.34
2022-12-18T12:06:02.888Z,100296.44
2022-12-18T12:08:52.823Z,100298.17
2022-12-18T12:11:31.011Z,100303.33
2022-12-18T12:14:08.167Z,100311.39
2022-12-18T12:17:08.640Z,100309.31
2022-12-18T12:20:04.633Z,100306.49
2022-12-18T12:22:49.235Z,100305.39
2022-12-18T12:25:42.524Z,100306.86
2022-12-18T12:28:13.566Z,100304.03
2022-12-18T12:31:06.711Z,100313.65
2022-12-18T12:33:47.068Z,100318.18
2022-12-18T12:36:33.610Z,100319.75
2022-12-18T12:39:06.596Z,100325.08
2022-12-18T12:41:56.169Z,100325.35
2022-12-18T12:44:33.468Z,100322.67
2022-12-18T12:47:04.853Z,100319.48
2022-12-18T12:49:39.048Z,100317.17
2022-12-18T12:52:13.009Z,100321.70
2022-12-18T12:54:42.270Z,100316.44
2022-12-18T12:57:25.306Z,100318.11
2022-12-18T12:59:53.464Z,100325.50
2022-12-18T13:02:21.795Z,100326.02
2022-12-18T13:04:53.483Z,100328.52
2022-12-18T13:07:34.930Z,100325.80
2022-12-18T13:10:20.666Z,100322.67
2022-12-18T13:13:02.959Z,100325.08
2022-12-18T13:15:39.882Z,100329.56
2022-12-18T13:18:11.317Z,100334.41
2022-12-18T13:20:55.380Z,100336.99
2022-12-18T13:23:26.832Z,100335.75
2022-12-18T13:26:07.216Z,100334.35
2022-12-18T13:28:47.427Z,100338.27
2022-12-18T13:31:16.366Z,100338.55
2022-12-18T13:34:24.512Z,100337.29
2022-12-18T13:36:36.412Z,100346.68
2022-12-18T13:39:12.736Z,100343.31
2022-12-18T13:41:42.796Z,100345.86
2022-12-18T13:44:13.818Z,100346.30
2022-12-18T13:46:47.398Z,100347.92
2022-12-18T13:49:15.572Z,100351.47
2022-12-18T13:51:55.839Z,100355.73
2022-12-18T13:54:37.899Z,100350.80
2022-12-18T13:57:07.824Z,100351.90
2022-12-18T13:59:40.475Z,100346.04
2022-12-18T14:02:23.744Z,100341.45
2022-12-18T14:04:52.295Z,100338.92
2022-12-18T14:07:23.078Z,100338.89
2022-12-18T14:10:06.439Z,100336.73
2022-12-18T14:13:00.953Z,100338.55
2022-12-18T14:15:42.474Z,100342.62
2022-12-18T14:18:36.710Z,100339.42
2022-12-18T14:21:07.824Z,100340.13
2022-12-18T14:23:40.248Z,100341.34
2022-12-18T14:26:28.298Z,100339.07
2022-12-18T14:28:58.132Z,100334.14
2022-12-18T14:31:29.328Z,100329.71
2022-12-18T14:33:57.729Z,100334.66
2022-12-18T14:36:28.055Z,100336.47
2022-12-18T14:38:58.779Z,100338.71
2022-12-18T14:41:28.905Z,100340.60
2022-12-18T14:44:07.032Z,100342.09
2022-12-18T14:46:34.946Z,100342.42
2022-12-18T14:49:04.333Z,100354.98
2022-12-18T14:51:35.725Z,100353.89
2022-12-18T14:54:09.416Z,100355.73
2022-12-18T14:56:44.121Z,100359.97
2022-12-18T14:59:24.769Z,100359.27
2022-12-18T15:02:02.541Z,100365.69
2022-12-18T15:04:44.204Z,100365.20
2022-12-18T15:07:18.019Z,100369.39
2022-12-18T15:10:10.352Z,100374.59
2022-12-18T15:12:44.379Z,100380.88
2022-12-18T15:15:34.868Z,100378.10
2022-12-18T15:18:14.052Z,100376.20
2022-12-18T15:20:46.347Z,100374.91
2022-12-18T15:23:34.545Z,100382.82
2022-12-18T15:26:07.017Z,100382.27
2022-12-18T15:29:03.018Z,100385.33
2022-12-18T15:31:33.353Z,100386.03
2022-12-18T15:34:22.705Z,100388.70
2022-12-18T15:36:51.487Z,100391.83
2022-12-18T15:39:19.292Z,100392.13
2022-12-18T15:42:05.902Z,100399.77
2022-12-18T15:44:33.814Z,100400.80
2022-12-18T15:47:01.751Z,100396.32
2022-12-18T15:49:29.643Z,100391.95
2022-12-18T15:51:59.362Z,100393.70
2022-12-18T15:54:46.267Z,100397.32
2022-12-18T15:57:26.818Z,100401.95
2022-12-18T15:59:57.626Z,100400.67
2022-12-18T16:02:26.010Z,100385.88
2022-12-18T16:04:55.184Z,100408.86
2022-12-18T16:07:25.449Z,100417.39
2022-12-18T16:09:55.834Z,100410.39
2022-12-18T16:12:26.061Z,100409.52
2022-12-18T16:14:53.885Z,100411.98
2022-12-18T16:17:22.789Z,100409.32
2022-12-18T16:19:50.630Z,100417.82
2022-12-18T16:22:22.383Z,100424.11
2022-12-18T16:24:50.996Z,100421.96
2022-12-18T16:27:19.597Z,100427.11
2022-12-18T16:29:47.556Z,100421.94
2022-12-18T16:32:16.827Z,100418.21
2022-12-18T16:34:45.022Z,100418.55
2022-12-18T16:37:14.072Z,100417.83
2022-12-18T16:39:42.229Z,100416.50
2022-12-18T16:42:17.533Z,100412.45
2022-12-18T16:44:46.816Z,100419.55
2022-12-18T16:47:15.288Z,100422.29
2022-12-18T16:49:46.009Z,100421.91
2022-12-18T16:52:14.763Z,100415.02
2022-12-18T16:54:42.665Z,100415.69
2022-12-18T16:57:13.238Z,100413.48
2022-12-18T16:59:41.226Z,100406.13
2022-12-18T17:02:14.302Z,100399.29
2022-12-18T17:04:42.658Z,100393.98
2022-12-18T17:07:10.748Z,100384.95
2022-12-18T17:09:39.219Z,100384.44
2022-12-18T17:12:07.141Z,100386.42
2022-12-18T17:14:35.046Z,100378.85
2022-12-18T17:19:52.258Z,100368.89
2022-12-18T17:22:20.916Z,100363.70
2022-12-18T17:24:48.741Z,100364.05
2022-12-18T17:27:16.734Z,100363.87
2022-12-18T17:29:48.249Z,100363.55
2022-12-18T17:32:17.405Z,100369.05
2022-12-18T17:34:45.304Z,100371.79
2022-12-18T17:37:13.110Z,100369.38
2022-12-18T17:39:41.105Z,100368.05
2022-12-18T17:42:11.474Z,100374.59
2022-12-18T17:44:44.045Z,100386.16
2022-12-18T17:47:13.295Z,100400.35
2022-12-18T17:49:41.364Z,100406.67
2022-12-18T17:52:09.844Z,100408.13
2022-12-18T17:54:40.057Z,100408.48
2022-12-18T17:57:08.119Z,100405.40
2022-12-18T17:59:36.045Z,100399.25
2022-12-18T18:02:03.932Z,100401.77
2022-12-18T18:04:32.678Z,100405.27
2022-12-18T18:07:00.494Z,100403.40
2022-12-18T18:09:28.562Z,100405.44
2022-12-18T18:12:16.161Z,100405.33
2022-12-18T18:14:45.037Z,100401.82
2022-12-18T18:17:12.902Z,100393.27
2022-12-18T18:19:42.219Z,100396.40
2022-12-18T18:22:11.110Z,100395.77
2022-12-18T18:24:39.001Z,100397.77
2022-12-18T18:27:06.895Z,100394.67
2022-12-18T18:29:34.743Z,100406.91
2022-12-18T18:32:02.814Z,100403.32
2022-12-18T18:34:31.688Z,100405.61
2022-12-18T18:37:01.679Z,100408.66
2022-12-18T18:39:29.888Z,100418.73
2022-12-18T18:41:58.261Z,100409.80
2022-12-18T18:44:26.660Z,100413.69
2022-12-18T18:46:58.060Z,100412.73
2022-12-18T18:49:27.729Z,100412.61
2022-12-18T18:51:57.276Z,100404.56
2022-12-18T18:54:26.891Z,100412.65
2022-12-18T18:59:43.935Z,100422.05
2022-12-18T19:02:12.738Z,100430.39
2022-12-18T19:04:46.399Z,100436.88
2022-12-18T19:07:29.521Z,100439.13
2022-12-18T19:10:07.246Z,100443.83
2022-12-18T19:12:54.290Z,100444.11
2022-12-18T19:15:22.812Z,100448.99
2022-12-18T19:17:50.955Z,100454.98
2022-12-18T19:20:19.199Z,100452.75
2022-12-18T19:22:55.768Z,100444.17
2022-12-18T19:25:30.950Z,100438.55
2022-12-18T19:28:21.198Z,100435.52
2022-12-18T19:30:59.420Z,100443.76
2022-12-18T19:33:43.330Z,100450.33
2022-12-18T19:36:13.541Z,100451.23
2022-12-18T19:38:43.048Z,100458.16
2022-12-18T19:41:14.187Z,100460.63
2022-12-18T19:43:43.103Z,100452.61
2022-12-18T19:46:12.908Z,100456.46
2022-12-18T19:48:45.388Z,100458.08
2022-12-18T19:51:16.345Z,100458.16
2022-12-18T19:53:45.073Z,100457.92
2022-12-18T19:56:14.633Z,100448.08
2022-12-18T20:01:38.064Z,100430.55
2022-12-18T20:04:06.396Z,100439.30
2022-12-18T20:06:36.008Z,100442.11
2022-12-18T20:09:05.814Z,100444.66
2022-12-18T20:11:36.391Z,100449.10
2022-12-18T20:14:11.084Z,100441.25
2022-12-18T20:16:39.139Z,100436.83
2022-12-18T20:19:07.519Z,100437.48
2022-12-18T20:21:36.466Z,100436.94
2022-12-18T20:24:07.099Z,100439.09
2022-12-18T20:26:34.807Z,100434.81
2022-12-18T20:29:02.551Z,100430.25
2022-12-18T20:31:30.356Z,100424.46
2022-12-18T20:34:01.560Z,100422.48
2022-12-18T20:36:31.827Z,100423.29
2022-12-18T20:39:03.893Z,100421.64
2022-12-18T20:41:37.661Z,100417.50
2022-12-18T20:44:14.039Z,100418.30
2022-12-18T22:37:34.844Z,100392.45
2022-12-18T22:40:03.937Z,100398.27
2022-12-18T22:42:32.073Z,100399.20
2022-12-18T22:45:00.801Z,100401.79
2022-12-18T22:47:31.791Z,100398.95
2022-12-18T22:49:59.938Z,100396.42
2022-12-18T22:52:28.252Z,100391.84
2022-12-18T22:54:56.622Z,100389.31
2022-12-18T22:57:24.698Z,100391.16
2022-12-18T22:59:52.834Z,100390.05
2022-12-18T23:02:21.055Z,100393.83
2022-12-18T23:04:49.322Z,100390.39
2022-12-18T23:07:17.236Z,100386.57
2022-12-18T23:09:45.181Z,100381.53
2022-12-18T23:12:18.780Z,100384.27
2022-12-18T23:14:47.445Z,100378.04
2022-12-18T23:17:15.746Z,100375.91
2022-12-18T23:19:48.829Z,100377.33
2022-12-18T23:22:17.701Z,100380.46
2022-12-18T23:24:46.437Z,100382.27
2022-12-18T23:27:14.437Z,100384.51
2022-12-18T23:29:42.646Z,100387.02
2022-12-18T23:32:13.002Z,100384.48
2022-12-18T23:34:41.194Z,100383.84
2022-12-18T23:37:09.303Z,100377.79
2022-12-18T23:39:37.227Z,100376.15
2022-12-18T23:42:05.406Z,100373.95
2022-12-18T23:44:34.027Z,100374.66
2022-12-18T23:47:04.860Z,100372.46
2022-12-18T23:49:32.958Z,100367.13
2022-12-18T23:52:01.133Z,100364.47
2022-12-18T23:54:33.550Z,100367.36
2022-12-18T23:57:02.222Z,100365.60
2022-12-18T23:59:30.243Z,100365.94
